sensor_id;sensor_type;location;lat;lon;timestamp;temperature;humidity
48978;DHT22;34793;48.940;2.618;2023-02-15T00:01:07;11.40;68.80
48978;DHT22;34793;48.940;2.618;2023-02-15T00:03:33;11.40;68.80
48978;DHT22;34793;48.940;2.618;2023-02-15T00:05:59;11.40;68.60
48978;DHT22;34793;48.940;2.618;2023-02-15T00:08:24;11.40;68.80
48978;DHT22;34793;48.940;2.618;2023-02-15T00:10:49;11.40;68.60
48978;DHT22;34793;48.940;2.618;2023-02-15T00:13:15;11.40;68.60
48978;DHT22;34793;48.940;2.618;2023-02-15T00:15:40;11.20;69.30
48978;DHT22;34793;48.940;2.618;2023-02-15T00:18:06;11.10;69.10
48978;DHT22;34793;48.940;2.618;2023-02-15T00:20:31;11.00;69.70
48978;DHT22;34793;48.940;2.618;2023-02-15T00:22:58;11.00;69.70
48978;DHT22;34793;48.940;2.618;2023-02-15T00:25:23;11.10;69.20
48978;DHT22;34793;48.940;2.618;2023-02-15T00:27:49;11.00;69.30
48978;DHT22;34793;48.940;2.618;2023-02-15T00:30:14;11.00;69.60
48978;DHT22;34793;48.940;2.618;2023-02-15T00:32:40;10.60;70.80
48978;DHT22;34793;48.940;2.618;2023-02-15T00:35:05;10.50;71.90
48978;DHT22;34793;48.940;2.618;2023-02-15T00:37:32;10.70;70.70
48978;DHT22;34793;48.940;2.618;2023-02-15T00:39:57;10.70;70.50
48978;DHT22;34793;48.940;2.618;2023-02-15T00:42:23;10.70;70.00
48978;DHT22;34793;48.940;2.618;2023-02-15T00:44:48;10.90;69.70
48978;DHT22;34793;48.940;2.618;2023-02-15T00:47:14;10.90;69.20
48978;DHT22;34793;48.940;2.618;2023-02-15T00:49:39;10.80;69.40
48978;DHT22;34793;48.940;2.618;2023-02-15T00:52:05;10.80;69.40
48978;DHT22;34793;48.940;2.618;2023-02-15T00:54:30;10.40;70.90
48978;DHT22;34793;48.940;2.618;2023-02-15T00:56:56;10.10;71.80
48978;DHT22;34793;48.940;2.618;2023-02-15T00:59:21;10.10;71.80
48978;DHT22;34793;48.940;2.618;2023-02-15T01:01:47;10.10;71.70
48978;DHT22;34793;48.940;2.618;2023-02-15T01:04:12;9.90;72.00
48978;DHT22;34793;48.940;2.618;2023-02-15T01:06:38;10.20;71.00
48978;DHT22;34793;48.940;2.618;2023-02-15T01:09:03;10.40;70.50
48978;DHT22;34793;48.940;2.618;2023-02-15T01:11:29;10.20;70.60
48978;DHT22;34793;48.940;2.618;2023-02-15T01:13:55;10.00;71.00
48978;DHT22;34793;48.940;2.618;2023-02-15T01:16:21;10.00;71.20
48978;DHT22;34793;48.940;2.618;2023-02-15T01:18:47;10.10;70.80
48978;DHT22;34793;48.940;2.618;2023-02-15T01:21:13;10.30;70.40
48978;DHT22;34793;48.940;2.618;2023-02-15T01:23:39;10.30;70.10
48978;DHT22;34793;48.940;2.618;2023-02-15T01:26:05;10.00;71.30
48978;DHT22;34793;48.940;2.618;2023-02-15T01:28:30;10.00;71.20
48978;DHT22;34793;48.940;2.618;2023-02-15T01:30:56;10.00;71.00
48978;DHT22;34793;48.940;2.618;2023-02-15T01:33:21;10.00;71.00
48978;DHT22;34793;48.940;2.618;2023-02-15T01:35:47;10.00;70.50
48978;DHT22;34793;48.940;2.618;2023-02-15T01:38:13;10.10;71.30
48978;DHT22;34793;48.940;2.618;2023-02-15T01:40:38;10.20;70.00
48978;DHT22;34793;48.940;2.618;2023-02-15T01:43:11;10.20;70.10
48978;DHT22;34793;48.940;2.618;2023-02-15T01:45:36;10.30;69.70
48978;DHT22;34793;48.940;2.618;2023-02-15T01:50:33;10.30;69.70
48978;DHT22;34793;48.940;2.618;2023-02-15T01:53:08;10.10;70.10
48978;DHT22;34793;48.940;2.618;2023-02-15T01:55:42;10.20;69.70
48978;DHT22;34793;48.940;2.618;2023-02-15T01:58:09;10.20;69.60
48978;DHT22;34793;48.940;2.618;2023-02-15T02:00:34;10.10;69.60
48978;DHT22;34793;48.940;2.618;2023-02-15T02:03:00;10.10;69.60
48978;DHT22;34793;48.940;2.618;2023-02-15T02:05:27;10.10;69.40
48978;DHT22;34793;48.940;2.618;2023-02-15T02:07:54;10.10;69.30
48978;DHT22;34793;48.940;2.618;2023-02-15T02:10:22;9.90;69.60
48978;DHT22;34793;48.940;2.618;2023-02-15T02:12:49;9.90;69.80
48978;DHT22;34793;48.940;2.618;2023-02-15T02:15:15;9.90;69.50
48978;DHT22;34793;48.940;2.618;2023-02-15T02:23:24;9.80;69.70
48978;DHT22;34793;48.940;2.618;2023-02-15T02:25:54;9.80;69.60
48978;DHT22;34793;48.940;2.618;2023-02-15T02:31:11;9.80;69.20
48978;DHT22;34793;48.940;2.618;2023-02-15T02:36:11;9.70;69.60
48978;DHT22;34793;48.940;2.618;2023-02-15T02:44:10;9.60;69.40
48978;DHT22;34793;48.940;2.618;2023-02-15T02:49:13;9.70;69.00
48978;DHT22;34793;48.940;2.618;2023-02-15T02:51:39;9.70;68.90
48978;DHT22;34793;48.940;2.618;2023-02-15T02:54:04;9.70;69.10
48978;DHT22;34793;48.940;2.618;2023-02-15T02:56:37;9.60;69.20
48978;DHT22;34793;48.940;2.618;2023-02-15T02:59:09;9.60;68.80
48978;DHT22;34793;48.940;2.618;2023-02-15T03:01:39;9.60;69.20
48978;DHT22;34793;48.940;2.618;2023-02-15T03:04:06;9.60;69.10
48978;DHT22;34793;48.940;2.618;2023-02-15T03:06:40;9.50;69.00
48978;DHT22;34793;48.940;2.618;2023-02-15T03:09:11;9.50;69.20
48978;DHT22;34793;48.940;2.618;2023-02-15T03:11:46;9.50;69.40
48978;DHT22;34793;48.940;2.618;2023-02-15T03:14:14;9.10;70.60
48978;DHT22;34793;48.940;2.618;2023-02-15T03:16:40;9.10;71.20
48978;DHT22;34793;48.940;2.618;2023-02-15T03:19:11;9.00;70.60
48978;DHT22;34793;48.940;2.618;2023-02-15T03:24:08;9.30;69.50
48978;DHT22;34793;48.940;2.618;2023-02-15T03:26:35;9.40;69.30
48978;DHT22;34793;48.940;2.618;2023-02-15T03:29:01;9.40;68.80
48978;DHT22;34793;48.940;2.618;2023-02-15T03:31:28;9.60;68.50
48978;DHT22;34793;48.940;2.618;2023-02-15T03:33:59;9.50;68.80
48978;DHT22;34793;48.940;2.618;2023-02-15T03:36:32;9.50;68.60
48978;DHT22;34793;48.940;2.618;2023-02-15T03:39:15;9.60;68.00
48978;DHT22;34793;48.940;2.618;2023-02-15T03:41:52;9.60;68.40
48978;DHT22;34793;48.940;2.618;2023-02-15T03:44:24;9.40;69.00
48978;DHT22;34793;48.940;2.618;2023-02-15T03:46:52;9.40;68.70
48978;DHT22;34793;48.940;2.618;2023-02-15T03:49:21;9.40;68.80
48978;DHT22;34793;48.940;2.618;2023-02-15T03:51:48;9.20;69.10
48978;DHT22;34793;48.940;2.618;2023-02-15T03:54:15;9.20;69.00
48978;DHT22;34793;48.940;2.618;2023-02-15T03:57:02;9.10;69.20
48978;DHT22;34793;48.940;2.618;2023-02-15T03:59:46;9.20;68.90
48978;DHT22;34793;48.940;2.618;2023-02-15T04:02:33;9.20;69.00
48978;DHT22;34793;48.940;2.618;2023-02-15T04:05:03;9.10;69.10
48978;DHT22;34793;48.940;2.618;2023-02-15T04:07:29;9.10;69.00
48978;DHT22;34793;48.940;2.618;2023-02-15T04:09:54;9.10;69.10
48978;DHT22;34793;48.940;2.618;2023-02-15T04:12:38;8.90;69.60
48978;DHT22;34793;48.940;2.618;2023-02-15T04:15:03;9.10;69.30
48978;DHT22;34793;48.940;2.618;2023-02-15T04:17:48;9.10;68.70
48978;DHT22;34793;48.940;2.618;2023-02-15T04:20:13;9.20;68.70
48978;DHT22;34793;48.940;2.618;2023-02-15T04:22:57;9.20;68.60
48978;DHT22;34793;48.940;2.618;2023-02-15T04:25:41;9.10;68.70
48978;DHT22;34793;48.940;2.618;2023-02-15T04:28:07;9.00;68.80
48978;DHT22;34793;48.940;2.618;2023-02-15T04:30:32;8.80;69.80
48978;DHT22;34793;48.940;2.618;2023-02-15T04:32:58;8.80;69.40
48978;DHT22;34793;48.940;2.618;2023-02-15T04:35:23;8.90;68.90
48978;DHT22;34793;48.940;2.618;2023-02-15T04:37:49;9.00;68.90
48978;DHT22;34793;48.940;2.618;2023-02-15T04:40:15;9.00;68.30
48978;DHT22;34793;48.940;2.618;2023-02-15T04:42:40;9.00;68.60
48978;DHT22;34793;48.940;2.618;2023-02-15T04:45:06;8.90;68.70
48978;DHT22;34793;48.940;2.618;2023-02-15T04:47:32;8.50;69.80
48978;DHT22;34793;48.940;2.618;2023-02-15T04:49:57;8.60;69.70
48978;DHT22;34793;48.940;2.618;2023-02-15T04:52:22;8.70;69.10
48978;DHT22;34793;48.940;2.618;2023-02-15T04:54:48;8.70;69.00
48978;DHT22;34793;48.940;2.618;2023-02-15T04:57:14;8.50;70.10
48978;DHT22;34793;48.940;2.618;2023-02-15T04:59:39;8.50;70.20
48978;DHT22;34793;48.940;2.618;2023-02-15T05:02:04;8.60;69.30
48978;DHT22;34793;48.940;2.618;2023-02-15T05:04:30;8.50;69.80
48978;DHT22;34793;48.940;2.618;2023-02-15T05:06:55;8.70;69.00
48978;DHT22;34793;48.940;2.618;2023-02-15T05:09:21;8.80;68.60
48978;DHT22;34793;48.940;2.618;2023-02-15T05:11:46;8.70;68.60
48978;DHT22;34793;48.940;2.618;2023-02-15T05:14:12;8.70;68.70
48978;DHT22;34793;48.940;2.618;2023-02-15T05:16:38;8.50;69.30
48978;DHT22;34793;48.940;2.618;2023-02-15T05:19:04;8.60;69.60
48978;DHT22;34793;48.940;2.618;2023-02-15T05:21:29;8.70;69.20
48978;DHT22;34793;48.940;2.618;2023-02-15T05:23:55;8.60;69.30
48978;DHT22;34793;48.940;2.618;2023-02-15T05:26:21;8.60;70.10
48978;DHT22;34793;48.940;2.618;2023-02-15T05:29:05;8.50;69.40
48978;DHT22;34793;48.940;2.618;2023-02-15T05:31:31;8.20;70.70
48978;DHT22;34793;48.940;2.618;2023-02-15T05:33:57;8.30;70.00
48978;DHT22;34793;48.940;2.618;2023-02-15T05:36:23;8.40;69.80
48978;DHT22;34793;48.940;2.618;2023-02-15T05:38:48;8.50;69.20
48978;DHT22;34793;48.940;2.618;2023-02-15T05:41:14;8.40;68.90
48978;DHT22;34793;48.940;2.618;2023-02-15T05:43:39;8.60;68.70
48978;DHT22;34793;48.940;2.618;2023-02-15T05:46:05;8.70;68.90
48978;DHT22;34793;48.940;2.618;2023-02-15T05:48:31;8.40;69.60
48978;DHT22;34793;48.940;2.618;2023-02-15T05:51:06;8.30;69.80
48978;DHT22;34793;48.940;2.618;2023-02-15T05:53:33;8.40;69.50
48978;DHT22;34793;48.940;2.618;2023-02-15T05:55:59;8.40;68.90
48978;DHT22;34793;48.940;2.618;2023-02-15T05:58:30;8.40;68.90
48978;DHT22;34793;48.940;2.618;2023-02-15T06:00:56;8.40;69.00
48978;DHT22;34793;48.940;2.618;2023-02-15T06:03:22;8.40;69.20
48978;DHT22;34793;48.940;2.618;2023-02-15T06:05:48;8.40;68.80
48978;DHT22;34793;48.940;2.618;2023-02-15T06:08:13;8.50;68.50
48978;DHT22;34793;48.940;2.618;2023-02-15T06:13:42;8.40;68.90
48978;DHT22;34793;48.940;2.618;2023-02-15T06:16:07;8.30;69.00
48978;DHT22;34793;48.940;2.618;2023-02-15T06:18:33;8.40;68.60
48978;DHT22;34793;48.940;2.618;2023-02-15T06:20:59;8.30;68.80
48978;DHT22;34793;48.940;2.618;2023-02-15T06:23:24;8.40;68.80
48978;DHT22;34793;48.940;2.618;2023-02-15T06:25:49;8.40;68.30
48978;DHT22;34793;48.940;2.618;2023-02-15T06:28:15;8.40;68.70
48978;DHT22;34793;48.940;2.618;2023-02-15T06:30:40;8.30;68.70
48978;DHT22;34793;48.940;2.618;2023-02-15T06:33:06;8.30;68.80
48978;DHT22;34793;48.940;2.618;2023-02-15T06:35:31;8.40;68.50
48978;DHT22;34793;48.940;2.618;2023-02-15T06:37:57;8.30;69.00
48978;DHT22;34793;48.940;2.618;2023-02-15T06:40:22;8.20;69.10
48978;DHT22;34793;48.940;2.618;2023-02-15T06:42:48;8.10;69.20
48978;DHT22;34793;48.940;2.618;2023-02-15T06:45:13;8.20;69.30
48978;DHT22;34793;48.940;2.618;2023-02-15T06:47:39;8.20;69.00
48978;DHT22;34793;48.940;2.618;2023-02-15T06:50:05;8.20;68.80
48978;DHT22;34793;48.940;2.618;2023-02-15T06:52:30;8.30;68.40
48978;DHT22;34793;48.940;2.618;2023-02-15T06:54:56;8.10;69.10
48978;DHT22;34793;48.940;2.618;2023-02-15T06:57:21;8.00;69.50
48978;DHT22;34793;48.940;2.618;2023-02-15T06:59:47;8.00;69.00
48978;DHT22;34793;48.940;2.618;2023-02-15T07:02:13;8.60;69.40
48978;DHT22;34793;48.940;2.618;2023-02-15T07:04:38;8.00;69.70
48978;DHT22;34793;48.940;2.618;2023-02-15T07:07:04;7.80;69.90
48978;DHT22;34793;48.940;2.618;2023-02-15T07:09:32;8.00;69.60
48978;DHT22;34793;48.940;2.618;2023-02-15T07:11:58;8.00;69.60
48978;DHT22;34793;48.940;2.618;2023-02-15T07:14:42;8.10;69.50
48978;DHT22;34793;48.940;2.618;2023-02-15T07:17:07;8.00;69.90
48978;DHT22;34793;48.940;2.618;2023-02-15T07:19:33;8.10;69.50
48978;DHT22;34793;48.940;2.618;2023-02-15T07:21:58;8.00;69.70
48978;DHT22;34793;48.940;2.618;2023-02-15T07:24:24;7.80;70.70
48978;DHT22;34793;48.940;2.618;2023-02-15T07:26:49;7.60;71.90
48978;DHT22;34793;48.940;2.618;2023-02-15T07:29:15;7.80;71.30
48978;DHT22;34793;48.940;2.618;2023-02-15T07:31:41;8.00;70.90
48978;DHT22;34793;48.940;2.618;2023-02-15T07:34:08;8.00;71.10
48978;DHT22;34793;48.940;2.618;2023-02-15T07:36:33;8.10;70.30
48978;DHT22;34793;48.940;2.618;2023-02-15T07:38:59;8.00;71.00
48978;DHT22;34793;48.940;2.618;2023-02-15T07:41:24;8.20;70.50
48978;DHT22;34793;48.940;2.618;2023-02-15T07:43:50;8.40;70.50
48978;DHT22;34793;48.940;2.618;2023-02-15T07:46:16;8.50;70.80
48978;DHT22;34793;48.940;2.618;2023-02-15T07:48:43;8.50;71.30
48978;DHT22;34793;48.940;2.618;2023-02-15T07:51:09;8.50;71.60
48978;DHT22;34793;48.940;2.618;2023-02-15T07:53:35;8.60;71.00
48978;DHT22;34793;48.940;2.618;2023-02-15T07:56:01;8.60;71.70
48978;DHT22;34793;48.940;2.618;2023-02-15T07:58:27;8.60;71.80
48978;DHT22;34793;48.940;2.618;2023-02-15T08:01:12;8.70;71.80
48978;DHT22;34793;48.940;2.618;2023-02-15T08:03:37;8.70;72.40
48978;DHT22;34793;48.940;2.618;2023-02-15T08:06:09;8.80;71.50
48978;DHT22;34793;48.940;2.618;2023-02-15T08:08:36;8.80;71.50
48978;DHT22;34793;48.940;2.618;2023-02-15T08:11:24;8.90;71.90
48978;DHT22;34793;48.940;2.618;2023-02-15T08:13:52;9.00;72.30
48978;DHT22;34793;48.940;2.618;2023-02-15T08:16:25;9.00;73.20
48978;DHT22;34793;48.940;2.618;2023-02-15T08:18:52;9.20;73.00
48978;DHT22;34793;48.940;2.618;2023-02-15T08:21:18;9.20;72.60
48978;DHT22;34793;48.940;2.618;2023-02-15T08:23:43;9.40;72.60
48978;DHT22;34793;48.940;2.618;2023-02-15T08:26:09;9.50;72.70
48978;DHT22;34793;48.940;2.618;2023-02-15T08:28:34;9.50;72.40
48978;DHT22;34793;48.940;2.618;2023-02-15T08:31:04;9.60;72.40
48978;DHT22;34793;48.940;2.618;2023-02-15T08:33:29;9.70;73.40
48978;DHT22;34793;48.940;2.618;2023-02-15T08:35:55;9.70;74.40
48978;DHT22;34793;48.940;2.618;2023-02-15T08:38:20;9.30;76.40
48978;DHT22;34793;48.940;2.618;2023-02-15T08:40:46;9.20;77.40
48978;DHT22;34793;48.940;2.618;2023-02-15T08:43:11;9.40;76.30
48978;DHT22;34793;48.940;2.618;2023-02-15T08:45:36;9.60;75.70
48978;DHT22;34793;48.940;2.618;2023-02-15T08:48:02;9.70;75.60
48978;DHT22;34793;48.940;2.618;2023-02-15T08:50:27;9.90;75.10
48978;DHT22;34793;48.940;2.618;2023-02-15T08:52:53;10.00;74.90
48978;DHT22;34793;48.940;2.618;2023-02-15T08:55:18;10.20;74.70
48978;DHT22;34793;48.940;2.618;2023-02-15T08:57:44;10.30;75.00
48978;DHT22;34793;48.940;2.618;2023-02-15T09:00:11;10.30;75.20
48978;DHT22;34793;48.940;2.618;2023-02-15T09:02:37;10.10;76.10
48978;DHT22;34793;48.940;2.618;2023-02-15T09:05:02;10.00;76.50
48978;DHT22;34793;48.940;2.618;2023-02-15T09:07:28;9.90;78.30
48978;DHT22;34793;48.940;2.618;2023-02-15T09:09:54;10.00;79.20
48978;DHT22;34793;48.940;2.618;2023-02-15T09:12:20;9.40;80.80
48978;DHT22;34793;48.940;2.618;2023-02-15T09:14:45;9.60;80.30
48978;DHT22;34793;48.940;2.618;2023-02-15T09:17:11;10.00;78.70
48978;DHT22;34793;48.940;2.618;2023-02-15T09:19:36;10.10;79.10
48978;DHT22;34793;48.940;2.618;2023-02-15T09:22:01;10.20;78.40
48978;DHT22;34793;48.940;2.618;2023-02-15T09:24:27;10.30;77.80
48978;DHT22;34793;48.940;2.618;2023-02-15T09:26:52;10.50;78.60
48978;DHT22;34793;48.940;2.618;2023-02-15T09:29:18;10.80;78.70
48978;DHT22;34793;48.940;2.618;2023-02-15T09:31:45;10.50;79.90
48978;DHT22;34793;48.940;2.618;2023-02-15T09:34:12;10.80;78.60
48978;DHT22;34793;48.940;2.618;2023-02-15T09:36:38;10.80;79.10
48978;DHT22;34793;48.940;2.618;2023-02-15T09:49:31;11.60;78.30
48978;DHT22;34793;48.940;2.618;2023-02-15T09:57:16;12.10;76.70
48978;DHT22;34793;48.940;2.618;2023-02-15T10:02:37;12.70;75.30
48978;DHT22;34793;48.940;2.618;2023-02-15T10:07:53;12.90;75.20
48978;DHT22;34793;48.940;2.618;2023-02-15T10:10:28;13.20;74.80
48978;DHT22;34793;48.940;2.618;2023-02-15T10:18:17;12.80;76.50
48978;DHT22;34793;48.940;2.618;2023-02-15T10:20:49;13.00;77.40
48978;DHT22;34793;48.940;2.618;2023-02-15T10:28:46;12.90;76.70
48978;DHT22;34793;48.940;2.618;2023-02-15T10:46:44;13.30;75.30
48978;DHT22;34793;48.940;2.618;2023-02-15T10:57:22;13.90;74.70
48978;DHT22;34793;48.940;2.618;2023-02-15T11:08:14;13.50;75.80
48978;DHT22;34793;48.940;2.618;2023-02-15T11:10:45;13.70;75.30
48978;DHT22;34793;48.940;2.618;2023-02-15T11:13:14;13.90;75.50
48978;DHT22;34793;48.940;2.618;2023-02-15T11:15:53;14.40;73.80
48978;DHT22;34793;48.940;2.618;2023-02-15T11:21:01;14.20;74.80
48978;DHT22;34793;48.940;2.618;2023-02-15T11:23:27;14.50;75.30
48978;DHT22;34793;48.940;2.618;2023-02-15T11:28:30;15.10;73.70
48978;DHT22;34793;48.940;2.618;2023-02-15T11:30:56;15.30;73.50
48978;DHT22;34793;48.940;2.618;2023-02-15T11:33:31;15.50;71.80
48978;DHT22;34793;48.940;2.618;2023-02-15T11:36:01;15.80;72.20
48978;DHT22;34793;48.940;2.618;2023-02-15T11:38:31;16.20;72.30
48978;DHT22;34793;48.940;2.618;2023-02-15T11:40:58;16.50;70.40
48978;DHT22;34793;48.940;2.618;2023-02-15T11:43:38;16.40;69.60
48978;DHT22;34793;48.940;2.618;2023-02-15T11:46:05;16.50;68.90
48978;DHT22;34793;48.940;2.618;2023-02-15T11:48:31;16.80;71.50
48978;DHT22;34793;48.940;2.618;2023-02-15T11:50:57;16.50;68.90
48978;DHT22;34793;48.940;2.618;2023-02-15T11:53:23;16.60;69.80
48978;DHT22;34793;48.940;2.618;2023-02-15T11:55:53;16.80;69.00
48978;DHT22;34793;48.940;2.618;2023-02-15T12:03:41;17.00;69.90
48978;DHT22;34793;48.940;2.618;2023-02-15T12:06:13;17.20;69.20
48978;DHT22;34793;48.940;2.618;2023-02-15T12:08:42;17.00;68.60
48978;DHT22;34793;48.940;2.618;2023-02-15T12:11:09;17.30;69.10
48978;DHT22;34793;48.940;2.618;2023-02-15T12:13:53;17.60;69.60
48978;DHT22;34793;48.940;2.618;2023-02-15T12:16:19;17.70;67.60
48978;DHT22;34793;48.940;2.618;2023-02-15T12:18:45;17.80;66.30
48978;DHT22;34793;48.940;2.618;2023-02-15T12:21:16;17.60;68.40
48978;DHT22;34793;48.940;2.618;2023-02-15T12:23:53;17.80;68.70
48978;DHT22;34793;48.940;2.618;2023-02-15T12:26:26;17.80;66.50
48978;DHT22;34793;48.940;2.618;2023-02-15T12:28:52;18.00;66.50
48978;DHT22;34793;48.940;2.618;2023-02-15T12:33:48;17.90;66.10
48978;DHT22;34793;48.940;2.618;2023-02-15T12:36:24;18.10;66.90
48978;DHT22;34793;48.940;2.618;2023-02-15T12:41:36;18.00;66.90
48978;DHT22;34793;48.940;2.618;2023-02-15T12:44:06;17.80;66.20
48978;DHT22;34793;48.940;2.618;2023-02-15T12:46:32;18.00;66.40
48978;DHT22;34793;48.940;2.618;2023-02-15T12:49:05;18.10;67.20
48978;DHT22;34793;48.940;2.618;2023-02-15T12:51:31;18.40;66.00
48978;DHT22;34793;48.940;2.618;2023-02-15T12:54:20;18.30;65.10
48978;DHT22;34793;48.940;2.618;2023-02-15T12:56:49;18.60;67.00
48978;DHT22;34793;48.940;2.618;2023-02-15T12:59:14;18.80;64.40
48978;DHT22;34793;48.940;2.618;2023-02-15T13:01:45;19.20;65.20
48978;DHT22;34793;48.940;2.618;2023-02-15T13:04:27;19.50;63.50
48978;DHT22;34793;48.940;2.618;2023-02-15T13:06:55;19.60;63.30
48978;DHT22;34793;48.940;2.618;2023-02-15T13:11:56;19.40;63.60
48978;DHT22;34793;48.940;2.618;2023-02-15T13:14:29;19.10;64.00
48978;DHT22;34793;48.940;2.618;2023-02-15T13:16:56;19.10;64.90
48978;DHT22;34793;48.940;2.618;2023-02-15T13:21:52;19.20;65.30
48978;DHT22;34793;48.940;2.618;2023-02-15T13:24:20;19.30;64.10
48978;DHT22;34793;48.940;2.618;2023-02-15T13:26:47;19.40;63.90
48978;DHT22;34793;48.940;2.618;2023-02-15T13:29:18;19.60;63.60
48978;DHT22;34793;48.940;2.618;2023-02-15T13:31:46;19.70;63.70
48978;DHT22;34793;48.940;2.618;2023-02-15T13:34:15;19.70;63.50
48978;DHT22;34793;48.940;2.618;2023-02-15T13:39:15;19.50;62.40
48978;DHT22;34793;48.940;2.618;2023-02-15T13:54:33;19.10;63.70
48978;DHT22;34793;48.940;2.618;2023-02-15T13:57:16;19.00;63.90
48978;DHT22;34793;48.940;2.618;2023-02-15T14:03:02;19.10;63.20
48978;DHT22;34793;48.940;2.618;2023-02-15T14:07:56;19.10;63.70
48978;DHT22;34793;48.940;2.618;2023-02-15T14:10:35;19.00;63.60
48978;DHT22;34793;48.940;2.618;2023-02-15T14:15:58;18.50;64.00
48978;DHT22;34793;48.940;2.618;2023-02-15T14:21:09;18.00;64.60
48978;DHT22;34793;48.940;2.618;2023-02-15T14:23:43;17.80;65.80
48978;DHT22;34793;48.940;2.618;2023-02-15T14:26:17;18.20;64.90
48978;DHT22;34793;48.940;2.618;2023-02-15T14:31:22;18.40;64.80
48978;DHT22;34793;48.940;2.618;2023-02-15T14:33:54;18.60;64.10
48978;DHT22;34793;48.940;2.618;2023-02-15T14:36:20;18.50;63.40
48978;DHT22;34793;48.940;2.618;2023-02-15T14:38:59;18.60;63.90
48978;DHT22;34793;48.940;2.618;2023-02-15T14:41:42;18.90;63.70
48978;DHT22;34793;48.940;2.618;2023-02-15T14:44:17;18.60;64.00
48978;DHT22;34793;48.940;2.618;2023-02-15T14:49:14;18.40;65.10
48978;DHT22;34793;48.940;2.618;2023-02-15T14:54:56;18.60;63.80
48978;DHT22;34793;48.940;2.618;2023-02-15T14:59:50;18.70;64.70
48978;DHT22;34793;48.940;2.618;2023-02-15T15:02:13;18.70;64.10
48978;DHT22;34793;48.940;2.618;2023-02-15T15:04:57;18.40;63.50
48978;DHT22;34793;48.940;2.618;2023-02-15T15:07:24;18.40;64.80
48978;DHT22;34793;48.940;2.618;2023-02-15T15:09:58;18.30;64.50
48978;DHT22;34793;48.940;2.618;2023-02-15T15:14:50;18.10;64.30
48978;DHT22;34793;48.940;2.618;2023-02-15T15:20:03;18.10;65.30
48978;DHT22;34793;48.940;2.618;2023-02-15T15:22:29;18.30;64.40
48978;DHT22;34793;48.940;2.618;2023-02-15T15:24:56;18.50;64.30
48978;DHT22;34793;48.940;2.618;2023-02-15T15:37:51;18.50;63.60
48978;DHT22;34793;48.940;2.618;2023-02-15T15:40:27;18.60;63.60
48978;DHT22;34793;48.940;2.618;2023-02-15T15:43:19;18.60;64.00
48978;DHT22;34793;48.940;2.618;2023-02-15T15:45:58;18.50;64.40
48978;DHT22;34793;48.940;2.618;2023-02-15T15:48:30;18.80;63.20
48978;DHT22;34793;48.940;2.618;2023-02-15T15:50:58;18.70;63.50
48978;DHT22;34793;48.940;2.618;2023-02-15T15:53:25;18.80;63.50
48978;DHT22;34793;48.940;2.618;2023-02-15T15:55:52;18.80;63.50
48978;DHT22;34793;48.940;2.618;2023-02-15T15:58:20;18.80;63.00
48978;DHT22;34793;48.940;2.618;2023-02-15T16:00:50;18.80;64.00
48978;DHT22;34793;48.940;2.618;2023-02-15T16:03:27;18.70;63.60
48978;DHT22;34793;48.940;2.618;2023-02-15T16:05:53;18.60;64.10
48978;DHT22;34793;48.940;2.618;2023-02-15T16:08:43;18.70;63.50
48978;DHT22;34793;48.940;2.618;2023-02-15T16:11:16;18.50;64.10
48978;DHT22;34793;48.940;2.618;2023-02-15T16:13:44;18.20;64.90
48978;DHT22;34793;48.940;2.618;2023-02-15T16:16:11;18.20;65.10
48978;DHT22;34793;48.940;2.618;2023-02-15T16:18:37;18.40;64.10
48978;DHT22;34793;48.940;2.618;2023-02-15T16:21:14;18.50;63.00
48978;DHT22;34793;48.940;2.618;2023-02-15T16:23:49;18.60;63.00
48978;DHT22;34793;48.940;2.618;2023-02-15T16:28:48;18.90;63.10
48978;DHT22;34793;48.940;2.618;2023-02-15T16:31:16;18.80;63.20
48978;DHT22;34793;48.940;2.618;2023-02-15T16:33:42;18.80;62.70
48978;DHT22;34793;48.940;2.618;2023-02-15T16:41:11;18.10;65.00
48978;DHT22;34793;48.940;2.618;2023-02-15T16:43:37;18.20;65.20
48978;DHT22;34793;48.940;2.618;2023-02-15T16:46:12;18.20;64.50
48978;DHT22;34793;48.940;2.618;2023-02-15T16:48:39;18.30;64.50
48978;DHT22;34793;48.940;2.618;2023-02-15T16:51:05;18.50;63.50
48978;DHT22;34793;48.940;2.618;2023-02-15T16:53:31;18.40;63.60
48978;DHT22;34793;48.940;2.618;2023-02-15T16:55:57;18.40;64.30
48978;DHT22;34793;48.940;2.618;2023-02-15T16:58:28;18.10;64.80
48978;DHT22;34793;48.940;2.618;2023-02-15T17:00:57;18.10;64.80
48978;DHT22;34793;48.940;2.618;2023-02-15T17:03:24;18.10;64.90
48978;DHT22;34793;48.940;2.618;2023-02-15T17:05:54;18.10;64.50
48978;DHT22;34793;48.940;2.618;2023-02-15T17:13:36;17.50;65.60
48978;DHT22;34793;48.940;2.618;2023-02-15T17:21:08;17.60;65.70
48978;DHT22;34793;48.940;2.618;2023-02-15T17:23:45;17.20;66.30
48978;DHT22;34793;48.940;2.618;2023-02-15T17:26:18;17.10;67.10
48978;DHT22;34793;48.940;2.618;2023-02-15T17:28:45;17.20;66.40
48978;DHT22;34793;48.940;2.618;2023-02-15T17:31:12;17.20;66.40
48978;DHT22;34793;48.940;2.618;2023-02-15T17:33:38;17.40;66.30
48978;DHT22;34793;48.940;2.618;2023-02-15T17:36:14;17.40;66.00
48978;DHT22;34793;48.940;2.618;2023-02-15T17:41:24;17.30;65.50
48978;DHT22;34793;48.940;2.618;2023-02-15T17:43:50;17.30;65.60
48978;DHT22;34793;48.940;2.618;2023-02-15T17:46:15;17.20;65.80
48978;DHT22;34793;48.940;2.618;2023-02-15T17:48:47;17.20;65.80
48978;DHT22;34793;48.940;2.618;2023-02-15T17:51:13;17.20;65.90
48978;DHT22;34793;48.940;2.618;2023-02-15T17:53:39;17.10;66.20
48978;DHT22;34793;48.940;2.618;2023-02-15T17:56:05;16.80;66.40
48978;DHT22;34793;48.940;2.618;2023-02-15T17:58:39;16.60;67.00
48978;DHT22;34793;48.940;2.618;2023-02-15T18:01:13;16.40;67.40
48978;DHT22;34793;48.940;2.618;2023-02-15T18:03:59;16.40;67.30
48978;DHT22;34793;48.940;2.618;2023-02-15T18:06:43;15.70;69.00
48978;DHT22;34793;48.940;2.618;2023-02-15T18:09:27;15.30;70.10
48978;DHT22;34793;48.940;2.618;2023-02-15T18:14:43;15.50;69.50
48978;DHT22;34793;48.940;2.618;2023-02-15T18:17:10;15.20;70.60
48978;DHT22;34793;48.940;2.618;2023-02-15T18:19:35;15.30;69.60
48978;DHT22;34793;48.940;2.618;2023-02-15T18:22:04;15.50;69.40
48978;DHT22;34793;48.940;2.618;2023-02-15T18:24:29;15.60;68.90
48978;DHT22;34793;48.940;2.618;2023-02-15T18:26:55;15.40;68.90
48978;DHT22;34793;48.940;2.618;2023-02-15T18:29:20;15.40;69.00
48978;DHT22;34793;48.940;2.618;2023-02-15T18:31:47;15.40;69.00
48978;DHT22;34793;48.940;2.618;2023-02-15T18:34:20;15.50;68.50
48978;DHT22;34793;48.940;2.618;2023-02-15T18:36:46;15.50;68.60
48978;DHT22;34793;48.940;2.618;2023-02-15T18:39:35;15.40;68.10
48978;DHT22;34793;48.940;2.618;2023-02-15T18:41:58;15.50;68.40
48978;DHT22;34793;48.940;2.618;2023-02-15T18:44:24;15.50;68.40
48978;DHT22;34793;48.940;2.618;2023-02-15T18:46:50;15.30;68.20
48978;DHT22;34793;48.940;2.618;2023-02-15T18:49:15;15.40;68.60
48978;DHT22;34793;48.940;2.618;2023-02-15T18:51:41;15.40;68.60
48978;DHT22;34793;48.940;2.618;2023-02-15T18:54:23;15.20;69.30